createdAt,value
2022-08-02T00:01:49.879Z,100.00
2022-08-02T00:04:17.841Z,100.00
2022-08-02T00:06:48.040Z,100.00
2022-08-02T00:09:17.212Z,100.00
2022-08-02T00:11:49.445Z,100.00
2022-08-02T00:14:17.389Z,100.00
2022-08-02T00:16:45.811Z,100.00
2022-08-02T00:19:13.671Z,100.00
2022-08-02T00:21:41.596Z,100.00
2022-08-02T00:24:29.325Z,100.00
2022-08-02T00:27:00.110Z,100.00
2022-08-02T00:29:28.146Z,100.00
2022-08-02T00:31:56.918Z,100.00
2022-08-02T00:34:28.314Z,100.00
2022-08-02T00:36:59.880Z,100.00
2022-08-02T00:43:12.984Z,100.00
2022-08-02T00:46:02.173Z,100.00
2022-08-02T00:48:31.032Z,100.00
2022-08-02T00:51:00.646Z,100.00
2022-08-02T00:53:28.776Z,100.00
2022-08-02T00:55:57.162Z,100.00
2022-08-02T00:58:30.150Z,100.00
2022-08-02T01:01:01.086Z,100.00
2022-08-02T01:03:29.054Z,100.00
2022-08-02T01:06:11.071Z,100.00
2022-08-02T01:08:39.926Z,100.00
2022-08-02T01:11:09.854Z,100.00
2022-08-02T01:13:39.325Z,100.00
2022-08-02T01:16:14.263Z,100.00
2022-08-02T01:18:47.151Z,100.00
2022-08-02T01:21:44.220Z,100.00
2022-08-02T01:24:22.788Z,100.00
2022-08-02T01:26:54.775Z,100.00
2022-08-02T01:29:28.588Z,100.00
2022-08-02T01:32:03.047Z,100.00
2022-08-02T01:34:35.849Z,100.00
2022-08-02T01:38:04.857Z,100.00
2022-08-02T01:40:36.301Z,100.00
2022-08-02T01:46:48.061Z,100.00
2022-08-02T01:49:19.840Z,100.00
2022-08-02T01:52:06.230Z,100.00
2022-08-02T01:54:34.733Z,100.00
2022-08-02T01:57:05.917Z,100.00
2022-08-02T01:59:35.308Z,100.00
2022-08-02T02:03:04.726Z,100.00
2022-08-02T02:05:35.432Z,100.00
2022-08-02T02:08:05.676Z,100.00
2022-08-02T02:10:35.864Z,100.00
2022-08-02T02:13:06.715Z,100.00
2022-08-02T02:15:36.433Z,100.00
2022-08-02T02:18:12.986Z,100.00
2022-08-02T02:20:43.415Z,100.00
2022-08-02T02:23:11.559Z,100.00
2022-08-02T02:25:46.542Z,100.00
2022-08-02T02:28:16.376Z,100.00
2022-08-02T02:34:29.097Z,100.00
2022-08-02T02:37:01.460Z,100.00
2022-08-02T02:39:30.462Z,100.00
2022-08-02T02:42:03.218Z,100.00
2022-08-02T02:44:32.375Z,100.00
2022-08-02T02:47:01.574Z,100.00
2022-08-02T02:49:30.430Z,100.00
2022-08-02T02:52:01.284Z,100.00
2022-08-02T02:54:34.595Z,100.00
2022-08-02T02:57:05.180Z,100.00
2022-08-02T02:59:34.312Z,100.00
2022-08-02T03:02:03.913Z,100.00
2022-08-02T03:04:56.507Z,100.00
2022-08-02T03:07:22.121Z,100.00
2022-08-02T03:09:54.192Z,100.00
2022-08-02T03:13:33.098Z,100.00
2022-08-02T03:16:04.495Z,100.00
2022-08-02T03:18:33.537Z,100.00
2022-08-02T03:21:03.219Z,100.00
2022-08-02T03:23:34.684Z,100.00
2022-08-02T03:26:03.561Z,100.00
2022-08-02T03:28:33.099Z,100.00
2022-08-02T03:31:02.657Z,100.00
2022-08-02T03:33:32.042Z,100.00
2022-08-02T03:36:02.542Z,100.00
2022-08-02T03:38:33.674Z,100.00
2022-08-02T03:41:02.569Z,100.00
2022-08-02T03:43:30.544Z,100.00
2022-08-02T03:47:00.064Z,100.00
2022-08-02T03:49:28.263Z,100.00
2022-08-02T03:51:57.228Z,100.00
2022-08-02T03:54:32.971Z,100.00
2022-08-02T03:57:04.233Z,100.00
2022-08-02T03:59:43.017Z,100.00
2022-08-02T04:02:11.848Z,100.00
2022-08-02T04:04:40.684Z,100.00
2022-08-02T04:07:08.605Z,100.00
2022-08-02T04:09:38.350Z,100.00
2022-08-02T04:12:06.840Z,100.00
2022-08-02T04:14:35.631Z,100.00
2022-08-02T04:17:08.748Z,100.00
2022-08-02T04:19:39.631Z,100.00
2022-08-02T04:22:09.775Z,100.00
2022-08-02T04:24:41.582Z,100.00
2022-08-02T04:27:49.342Z,100.00
2022-08-02T04:30:00.527Z,100.00
2022-08-02T04:32:28.618Z,100.00
2022-08-02T04:38:09.936Z,100.00
2022-08-02T04:40:36.948Z,100.00
2022-08-02T04:43:06.874Z,100.00
2022-08-02T04:45:35.538Z,100.00
2022-08-02T04:48:05.562Z,100.00
2022-08-02T04:50:33.920Z,100.00
2022-08-02T04:53:01.720Z,100.00
2022-08-02T04:55:30.137Z,100.00
2022-08-02T04:58:04.063Z,100.00
2022-08-02T05:00:35.274Z,100.00
2022-08-02T05:03:04.056Z,100.00
2022-08-02T05:05:32.612Z,100.00
2022-08-02T05:08:00.700Z,100.00
2022-08-02T05:10:29.719Z,100.00
2022-08-02T05:12:59.982Z,100.00
2022-08-02T05:15:31.625Z,100.00
2022-08-02T05:18:03.037Z,100.00
2022-08-02T05:20:30.914Z,100.00
2022-08-02T05:23:00.587Z,100.00
2022-08-02T05:25:28.453Z,100.00
2022-08-02T05:27:56.985Z,100.00
2022-08-02T05:30:28.705Z,100.00
2022-08-02T05:32:56.565Z,100.00
2022-08-02T05:35:26.040Z,100.00
2022-08-02T05:37:54.541Z,100.00
2022-08-02T05:40:25.729Z,100.00
2022-08-02T05:42:54.938Z,100.00
2022-08-02T05:45:23.011Z,100.00
2022-08-02T05:47:52.647Z,100.00
2022-08-02T05:50:24.411Z,100.00
2022-08-02T05:53:00.762Z,100.00
2022-08-02T05:55:30.030Z,100.00
2022-08-02T05:58:04.329Z,100.00
2022-08-02T06:00:35.404Z,100.00
2022-08-02T06:04:04.546Z,100.00
2022-08-02T06:06:35.320Z,100.00
2022-08-02T06:09:06.891Z,100.00
2022-08-02T06:11:38.066Z,100.00
2022-08-02T06:14:07.201Z,100.00
2022-08-02T06:16:37.668Z,100.00
2022-08-02T06:19:10.227Z,100.00
2022-08-02T06:22:32.907Z,100.00
2022-08-02T06:24:28.290Z,100.00
2022-08-02T06:26:57.323Z,100.00
2022-08-02T06:29:25.798Z,100.00
2022-08-02T06:31:54.558Z,100.00
2022-08-02T06:34:22.164Z,100.00
2022-08-02T06:36:57.103Z,100.00
2022-08-02T06:39:30.193Z,100.00
2022-08-02T06:42:00.012Z,100.00
2022-08-02T06:44:49.800Z,100.00
2022-08-02T06:47:15.247Z,100.00
2022-08-02T06:49:51.940Z,100.00
2022-08-02T06:52:28.875Z,100.00
2022-08-02T06:54:58.599Z,100.00
2022-08-02T06:57:26.201Z,100.00
2022-08-02T06:59:53.775Z,100.00
2022-08-02T07:02:21.671Z,100.00
2022-08-02T07:04:49.445Z,100.00
2022-08-02T07:07:16.989Z,100.00
2022-08-02T07:09:56.921Z,100.00
2022-08-02T07:12:29.750Z,100.00
2022-08-02T07:14:57.963Z,100.00
2022-08-02T07:17:25.505Z,100.00
2022-08-02T07:19:53.103Z,100.00
2022-08-02T07:22:23.472Z,100.00
2022-08-02T07:24:52.931Z,100.00
2022-08-02T07:27:20.609Z,100.00
2022-08-02T07:29:48.291Z,100.00
2022-08-02T07:32:16.390Z,99.14
2022-08-02T07:34:50.317Z,99.50
2022-08-02T07:37:26.250Z,97.29
2022-08-02T07:40:14.115Z,98.54
2022-08-02T07:42:43.460Z,98.35
2022-08-02T07:45:12.493Z,99.84
2022-08-02T07:47:40.838Z,95.72
2022-08-02T07:50:09.726Z,93.34
2022-08-02T07:52:37.315Z,91.83
2022-08-02T07:55:05.450Z,93.54
2022-08-02T07:57:34.585Z,91.52
2022-08-02T08:00:02.218Z,88.60
2022-08-02T08:02:29.766Z,87.94
2022-08-02T08:04:58.196Z,88.49
2022-08-02T08:07:25.793Z,86.43
2022-08-02T08:09:53.659Z,85.03
2022-08-02T08:12:24.293Z,83.01
2022-08-02T08:14:53.357Z,82.77
2022-08-02T08:17:20.928Z,82.96
2022-08-02T08:19:51.048Z,82.76
2022-08-02T08:22:19.461Z,81.55
2022-08-02T08:24:47.943Z,79.21
2022-08-02T08:27:15.717Z,79.54
2022-08-02T08:29:43.724Z,79.58
2022-08-02T08:32:17.515Z,78.29
2022-08-02T08:34:46.140Z,78.32
2022-08-02T08:37:16.578Z,75.74
2022-08-02T08:39:58.302Z,76.98
2022-08-02T08:42:27.348Z,76.43
2022-08-02T08:44:57.378Z,76.78
2022-08-02T08:47:33.635Z,75.08
2022-08-02T08:50:03.113Z,77.39
2022-08-02T08:52:33.723Z,74.00
2022-08-02T08:55:01.831Z,72.55
2022-08-02T08:57:30.564Z,72.27
2022-08-02T08:59:58.224Z,70.60
2022-08-02T09:02:30.661Z,68.03
2022-08-02T09:04:58.362Z,68.35
2022-08-02T09:07:25.890Z,67.83
2022-08-02T09:09:53.484Z,69.12
2022-08-02T09:12:25.209Z,67.04
2022-08-02T09:14:53.206Z,66.42
2022-08-02T09:17:22.140Z,64.80
2022-08-02T09:20:07.717Z,63.28
2022-08-02T09:22:35.336Z,65.42
2022-08-02T09:25:02.879Z,64.01
2022-08-02T09:27:37.035Z,65.08
2022-08-02T09:30:13.150Z,65.70
2022-08-02T09:32:49.756Z,65.83
2022-08-02T09:38:13.081Z,66.98
2022-08-02T09:40:42.161Z,68.75
2022-08-02T09:43:10.488Z,66.77
2022-08-02T09:45:38.195Z,67.21
2022-08-02T09:48:08.632Z,64.64
2022-08-02T09:50:37.196Z,66.10
2022-08-02T09:53:05.296Z,66.00
2022-08-02T09:55:34.308Z,66.20
2022-08-02T09:58:18.107Z,64.28
2022-08-02T10:00:54.394Z,63.43
2022-08-02T10:03:22.946Z,64.80
2022-08-02T10:05:56.228Z,63.84
2022-08-02T10:08:33.133Z,63.07
2022-08-02T10:11:05.656Z,61.91
2022-08-02T10:13:37.255Z,64.63
2022-08-02T10:16:06.270Z,65.27
2022-08-02T10:18:39.779Z,63.49
2022-08-02T10:21:09.558Z,64.61
2022-08-02T10:23:40.616Z,62.51
2022-08-02T10:26:15.716Z,61.87
2022-08-02T10:28:44.223Z,61.19
2022-08-02T10:31:13.179Z,61.48
2022-08-02T10:33:41.904Z,61.76
2022-08-02T10:36:10.198Z,61.40
2022-08-02T10:38:38.418Z,62.02
2022-08-02T10:41:08.256Z,61.81
2022-08-02T10:43:49.332Z,59.20
2022-08-02T10:46:25.098Z,59.97
2022-08-02T10:52:07.708Z,57.94
2022-08-02T10:54:38.547Z,57.54
2022-08-02T10:57:16.430Z,58.46
2022-08-02T10:59:46.062Z,57.80
2022-08-02T11:02:14.476Z,57.52
2022-08-02T11:05:06.201Z,56.18
2022-08-02T11:07:37.136Z,56.61
2022-08-02T11:10:30.338Z,57.34
2022-08-02T11:13:00.725Z,56.55
2022-08-02T11:15:32.482Z,57.30
2022-08-02T11:18:01.032Z,56.09
2022-08-02T11:20:29.117Z,56.67
2022-08-02T11:22:57.281Z,54.82
2022-08-02T11:26:00.890Z,55.93
2022-08-02T11:28:24.587Z,54.68
2022-08-02T11:30:59.050Z,55.65
2022-08-02T11:33:32.443Z,54.91
2022-08-02T11:36:05.666Z,54.86
2022-08-02T11:38:33.628Z,55.40
2022-08-02T11:41:09.455Z,53.55
2022-08-02T11:43:39.499Z,54.36
2022-08-02T11:47:08.836Z,56.23
2022-08-02T11:49:39.807Z,53.83
2022-08-02T11:52:11.517Z,55.42
2022-08-02T11:54:41.467Z,54.15
2022-08-02T11:57:19.395Z,56.59
2022-08-02T11:59:50.232Z,54.38
2022-08-02T12:02:20.062Z,52.83
2022-08-02T12:04:57.375Z,53.51
2022-08-02T12:07:35.153Z,52.68
2022-08-02T12:10:06.276Z,55.28
2022-08-02T12:12:35.337Z,53.83
2022-08-02T12:15:03.390Z,53.24
2022-08-02T12:17:48.981Z,53.33
2022-08-02T12:20:18.565Z,55.31
2022-08-02T12:22:47.008Z,54.39
2022-08-02T12:25:33.538Z,53.42
2022-08-02T12:28:20.406Z,54.34
2022-08-02T12:30:53.370Z,53.88
2022-08-02T12:33:22.427Z,52.15
2022-08-02T12:35:51.989Z,50.98
2022-08-02T12:38:20.841Z,50.66
2022-08-02T12:40:48.861Z,54.05
2022-08-02T12:43:21.441Z,52.57
2022-08-02T12:45:51.514Z,50.47
2022-08-02T12:48:37.136Z,52.07
2022-08-02T12:51:22.833Z,51.40
2022-08-02T12:53:59.893Z,50.89
2022-08-02T12:56:30.359Z,49.38
2022-08-02T12:58:59.752Z,50.27
2022-08-02T13:01:28.920Z,51.11
2022-08-02T13:04:09.459Z,49.70
2022-08-02T13:06:44.529Z,49.00
2022-08-02T13:09:15.390Z,50.61
2022-08-02T13:11:43.993Z,48.44
2022-08-02T13:14:12.732Z,49.67
2022-08-02T13:16:41.662Z,49.41
2022-08-02T13:19:09.533Z,49.48
2022-08-02T13:21:41.605Z,48.76
2022-08-02T13:24:38.334Z,48.89
2022-08-02T13:27:08.663Z,49.65
2022-08-02T13:29:36.925Z,48.48
2022-08-02T13:32:04.949Z,49.68
2022-08-02T13:34:32.750Z,49.67
2022-08-02T13:37:03.708Z,49.42
2022-08-02T13:39:33.018Z,47.86
2022-08-02T13:42:00.755Z,48.56
2022-08-02T13:44:29.743Z,49.19
2022-08-02T13:47:00.094Z,45.11
2022-08-02T13:49:51.327Z,45.23
2022-08-02T13:52:17.282Z,43.83
2022-08-02T13:54:46.672Z,44.21
2022-08-02T13:57:14.519Z,44.92
2022-08-02T13:59:55.954Z,44.17
2022-08-02T14:02:28.368Z,46.57
2022-08-02T14:04:57.168Z,43.67
2022-08-02T14:07:24.841Z,42.96
2022-08-02T14:09:54.117Z,41.83
2022-08-02T14:12:22.088Z,41.88
2022-08-02T14:14:49.733Z,43.52
2022-08-02T14:17:18.780Z,40.46
2022-08-02T14:19:46.625Z,43.18
2022-08-02T14:22:14.415Z,44.28
2022-08-02T14:24:42.634Z,41.90
2022-08-02T14:27:11.921Z,41.82
2022-08-02T14:29:40.411Z,41.15
2022-08-02T14:32:08.839Z,40.10
2022-08-02T14:34:36.666Z,41.08
2022-08-02T14:37:04.785Z,39.72
2022-08-02T14:39:43.321Z,41.03
2022-08-02T14:42:25.049Z,40.09
2022-08-02T14:44:54.670Z,39.67
2022-08-02T14:47:22.420Z,41.84
2022-08-02T14:49:57.837Z,39.32
2022-08-02T14:52:25.900Z,40.96
2022-08-02T14:54:53.877Z,42.70
2022-08-02T14:57:25.315Z,40.90
2022-08-02T14:59:53.223Z,40.16
2022-08-02T15:02:21.184Z,40.32
2022-08-02T15:04:49.066Z,40.95
2022-08-02T15:07:17.924Z,38.07
2022-08-02T15:09:45.983Z,38.97
2022-08-02T15:12:15.553Z,38.93
2022-08-02T15:14:47.996Z,40.90
2022-08-02T15:17:15.972Z,39.53
2022-08-02T15:19:57.695Z,38.10
2022-08-02T15:22:28.871Z,39.30
2022-08-02T15:24:56.921Z,39.76
2022-08-02T15:27:25.190Z,39.63
2022-08-02T15:30:00.692Z,37.38
2022-08-02T15:32:29.776Z,38.54
2022-08-02T15:34:58.224Z,40.73
2022-08-02T15:37:30.807Z,41.15
2022-08-02T15:40:00.316Z,39.21
2022-08-02T15:42:30.705Z,40.14
2022-08-02T15:45:01.319Z,37.85
2022-08-02T15:47:29.525Z,38.92
2022-08-02T15:49:58.622Z,39.32
2022-08-02T15:52:27.547Z,37.56
2022-08-02T15:54:55.746Z,36.93
2022-08-02T15:57:24.288Z,37.18
2022-08-02T15:59:53.219Z,38.70
2022-08-02T16:02:22.674Z,37.05
2022-08-02T16:04:50.419Z,39.30
2022-08-02T16:07:18.074Z,37.96
2022-08-02T16:09:45.816Z,36.73
2022-08-02T16:12:13.911Z,39.60
2022-08-02T16:14:41.882Z,37.11
2022-08-02T16:17:09.703Z,36.44
2022-08-02T16:19:48.753Z,37.34
2022-08-02T16:22:18.680Z,38.18
2022-08-02T16:24:47.741Z,37.13
2022-08-02T16:27:15.716Z,37.18
2022-08-02T16:29:43.622Z,36.83
2022-08-02T16:32:12.406Z,39.34
2022-08-02T16:35:07.211Z,39.66
2022-08-02T16:37:51.925Z,42.14
2022-08-02T16:40:18.065Z,38.21
2022-08-02T16:42:50.190Z,39.14
2022-08-02T16:45:21.408Z,35.90
2022-08-02T16:47:54.960Z,36.83
2022-08-02T16:50:28.298Z,40.74
2022-08-02T16:52:58.060Z,42.82
2022-08-02T16:55:29.221Z,39.32
2022-08-02T16:58:01.053Z,40.24
2022-08-02T17:00:29.867Z,37.59
2022-08-02T17:05:56.566Z,38.76
2022-08-02T17:08:31.745Z,37.17
2022-08-02T17:11:03.676Z,38.23
2022-08-02T17:13:32.165Z,38.67
2022-08-02T17:16:20.759Z,39.42
2022-08-02T17:18:50.451Z,38.68
2022-08-02T17:21:19.942Z,38.55
2022-08-02T17:24:04.994Z,41.24
2022-08-02T17:26:38.202Z,41.73
2022-08-02T17:29:15.142Z,40.80
2022-08-02T17:32:02.506Z,38.91
2022-08-02T17:34:36.146Z,38.49
2022-08-02T17:37:07.838Z,40.09
2022-08-02T17:39:44.146Z,40.47
2022-08-02T17:42:20.093Z,42.13
2022-08-02T17:44:50.711Z,43.36
2022-08-02T17:47:19.303Z,46.10
2022-08-02T17:49:48.386Z,44.87
2022-08-02T17:52:51.107Z,45.75
2022-08-02T17:55:07.025Z,47.62
2022-08-02T18:00:24.708Z,48.78
2022-08-02T18:02:55.688Z,49.27
2022-08-02T18:05:40.023Z,49.51
2022-08-02T18:08:18.353Z,50.59
2022-08-02T18:10:50.018Z,50.69
2022-08-02T18:13:17.840Z,50.48
2022-08-02T18:15:45.982Z,51.84
2022-08-02T18:18:14.571Z,51.39
2022-08-02T18:20:44.830Z,52.26
2022-08-02T18:23:15.877Z,52.80
2022-08-02T18:25:45.880Z,53.19
2022-08-02T18:28:17.063Z,53.54
2022-08-02T18:34:27.942Z,54.94
2022-08-02T18:36:55.825Z,55.35
2022-08-02T18:39:27.151Z,55.91
2022-08-02T18:42:02.029Z,56.81
2022-08-02T18:44:31.024Z,57.29
2022-08-02T18:46:59.579Z,60.98
2022-08-02T18:49:46.109Z,64.12
2022-08-02T18:52:16.152Z,57.55
2022-08-02T18:55:01.366Z,58.57
2022-08-02T18:58:16.974Z,58.67
2022-08-02T19:00:20.574Z,58.38
2022-08-02T19:02:54.092Z,58.72
2022-08-02T19:05:52.373Z,60.76
2022-08-02T19:08:12.849Z,64.04
2022-08-02T19:10:49.012Z,67.59
2022-08-02T19:13:18.607Z,70.03
2022-08-02T19:15:47.881Z,72.65
2022-08-02T19:18:15.908Z,72.16
2022-08-02T19:20:48.009Z,77.90
2022-08-02T19:23:18.895Z,78.34
2022-08-02T19:25:54.783Z,75.39
2022-08-02T19:28:26.318Z,77.17
2022-08-02T19:30:57.466Z,77.57
2022-08-02T19:34:04.784Z,81.41
2022-08-02T19:36:16.966Z,85.91
2022-08-02T19:38:49.183Z,86.17
2022-08-02T19:41:22.237Z,89.79
2022-08-02T19:47:38.460Z,95.20
2022-08-02T19:50:07.898Z,95.51
2022-08-02T19:52:38.021Z,82.65
2022-08-02T19:55:58.269Z,89.36
2022-08-02T19:57:59.717Z,92.82
2022-08-02T20:00:28.038Z,88.65
2022-08-02T20:02:56.063Z,89.02
2022-08-02T20:05:28.251Z,90.72
2022-08-02T20:07:57.659Z,93.53
2022-08-02T20:10:25.391Z,97.10
2022-08-02T20:12:54.634Z,93.38
2022-08-02T20:15:55.812Z,94.28
2022-08-02T20:18:15.937Z,94.01
2022-08-02T20:20:55.088Z,91.91
2022-08-02T20:23:32.587Z,94.87
2022-08-02T20:26:02.896Z,98.51
2022-08-02T20:28:31.972Z,99.35
2022-08-02T20:31:07.107Z,99.76
2022-08-02T20:33:37.100Z,99.34
2022-08-02T20:36:24.575Z,95.79
2022-08-02T20:38:52.763Z,95.81
2022-08-02T20:41:23.853Z,96.43
2022-08-02T20:44:05.504Z,98.11
2022-08-02T20:46:48.848Z,98.45
2022-08-02T20:49:23.325Z,97.32
2022-08-02T20:51:52.754Z,97.00
2022-08-02T20:54:23.045Z,98.21
2022-08-02T20:56:51.736Z,99.54
2022-08-02T20:59:21.274Z,100.00
2022-08-02T21:01:57.522Z,100.00
2022-08-02T21:04:26.329Z,100.00
2022-08-02T21:06:55.840Z,99.50
2022-08-02T21:09:52.513Z,100.00
2022-08-02T21:12:12.951Z,100.00
2022-08-02T21:14:40.839Z,100.00
2022-08-02T21:17:11.378Z,100.00
2022-08-02T21:19:46.019Z,100.00
2022-08-02T21:22:15.609Z,100.00
2022-08-02T21:24:45.770Z,100.00
2022-08-02T21:27:51.884Z,100.00
2022-08-02T21:30:03.359Z,100.00
2022-08-02T21:32:33.695Z,100.00
2022-08-02T21:35:01.802Z,100.00
2022-08-02T21:37:33.267Z,100.00
2022-08-02T21:40:13.646Z,100.00
2022-08-02T21:42:41.580Z,100.00
2022-08-02T21:45:17.020Z,100.00
2022-08-02T21:47:51.744Z,100.00
2022-08-02T21:50:19.633Z,100.00
2022-08-02T21:52:52.298Z,100.00
2022-08-02T21:56:00.263Z,100.00
2022-08-02T21:58:23.520Z,100.00
2022-08-02T22:00:51.652Z,100.00
2022-08-02T22:03:24.646Z,100.00
2022-08-02T22:05:57.548Z,100.00
2022-08-02T22:09:42.272Z,100.00
2022-08-02T22:16:06.174Z,100.00
2022-08-02T22:18:35.647Z,100.00
2022-08-02T22:21:14.462Z,100.00
2022-08-02T22:23:50.352Z,100.00
2022-08-02T22:26:19.842Z,100.00
2022-08-02T22:28:50.522Z,100.00
2022-08-02T22:31:41.052Z,100.00
2022-08-02T22:34:26.600Z,100.00
2022-08-02T22:37:01.784Z,100.00
2022-08-02T22:39:37.068Z,100.00
2022-08-02T22:42:25.833Z,100.00
2022-08-02T22:44:53.748Z,100.00
2022-08-02T22:47:22.370Z,100.00
2022-08-02T22:49:59.439Z,100.00
2022-08-02T22:52:28.085Z,100.00
2022-08-02T22:54:56.041Z,100.00
2022-08-02T22:57:30.677Z,100.00
2022-08-02T22:58:36.283Z,36.48
2022-08-02T22:58:48.666Z,48.52
2022-08-02T22:59:12.607Z,100.00
2022-08-02T22:59:59.431Z,100.00
2022-08-02T23:02:27.201Z,100.00
2022-08-02T23:04:57.789Z,100.00
2022-08-02T23:07:27.143Z,100.00
2022-08-02T23:09:55.232Z,100.00
2022-08-02T23:12:23.594Z,100.00
2022-08-02T23:14:52.264Z,100.00
2022-08-02T23:17:38.228Z,100.00
2022-08-02T23:20:09.687Z,100.00
2022-08-02T23:22:38.140Z,100.00
2022-08-02T23:25:07.940Z,100.00
2022-08-02T23:27:36.117Z,100.00
2022-08-02T23:30:11.270Z,100.00
2022-08-02T23:32:39.916Z,100.00
2022-08-02T23:35:10.665Z,100.00
2022-08-02T23:38:00.489Z,100.00
2022-08-02T23:40:40.707Z,100.00
2022-08-02T23:43:13.866Z,100.00
2022-08-02T23:45:44.086Z,100.00
2022-08-02T23:48:12.959Z,100.00
2022-08-02T23:50:42.303Z,100.00
2022-08-02T23:53:11.676Z,100.00
2022-08-02T23:55:39.673Z,100.00
2022-08-02T23:58:07.523Z,100.00
